Time;durP1;ratioP1;P1;durP2;ratioP2;P2;SDS_P1;SDS_P2;PMS_P1;PMS_P2;Temp;Humidity;BMP_temperature;BMP_pressure;BME280_temperature;BME280_humidity;BME280_pressure;Samples;Min_cycle;Max_cycle;Signal;HPM_P1;HPM_P2
2023/07/10 00:00:37;;;;;;;4.90;4.40;;;;;;;24.30;82.43;98778.53;4071279;29;20238;-61
2023/07/10 00:02:38;;;;;;;5.82;4.38;;;;;;;24.31;82.31;98774.56;4073214;29;20238;-61
2023/07/10 00:04:40;;;;;;;4.45;4.05;;;;;;;24.30;82.62;98778.53;4072390;29;20200;-61
2023/07/10 00:06:42;;;;;;;4.05;3.72;;;;;;;24.25;82.75;98775.88;4070911;29;20216;-61
2023/07/10 00:08:44;;;;;;;4.38;4.03;;;;;;;24.20;83.92;98766.88;4073403;29;20212;-60
2023/07/10 00:10:45;;;;;;;9.32;4.18;;;;;;;24.02;84.18;98768.88;4072899;29;20204;-61
2023/07/10 00:12:47;;;;;;;9.02;4.95;;;;;;;23.85;85.25;98765.22;4070547;29;20319;-61
2023/07/10 00:14:49;;;;;;;5.90;4.00;;;;;;;23.79;85.41;98764.56;4073754;29;20235;-61
2023/07/10 00:16:51;;;;;;;4.97;4.40;;;;;;;23.78;85.03;98767.69;4072214;29;20213;-61
2023/07/10 00:18:54;;;;;;;4.57;4.15;;;;;;;23.81;84.82;98765.06;4068776;29;20560;-60
2023/07/10 00:20:55;;;;;;;4.25;3.88;;;;;;;23.79;84.66;98767.38;4069225;29;20231;-61
2023/07/10 00:22:57;;;;;;;4.35;3.40;;;;;;;23.77;84.59;98760.47;4071009;29;20207;-61
2023/07/10 00:24:58;;;;;;;4.38;3.97;;;;;;;23.77;84.83;98765.25;4070210;29;20251;-60
2023/07/10 00:27:00;;;;;;;4.85;3.92;;;;;;;23.80;85.04;98757.81;4077671;29;20208;-62
2023/07/10 00:29:14;;;;;;;4.55;4.03;;;;;;;23.80;84.38;98757.00;4076488;29;21051;-61
2023/07/10 00:31:16;;;;;;;4.28;3.88;;;;;;;23.77;84.54;98752.91;4070880;29;20666;-61
2023/07/10 00:33:19;;;;;;;4.35;3.88;;;;;;;23.77;84.75;98754.06;4071274;29;20315;-61
2023/07/10 00:35:25;;;;;;;4.30;3.90;;;;;;;23.71;84.72;98753.38;4071077;29;20208;-61
2023/07/10 00:37:26;;;;;;;3.72;3.35;;;;;;;23.70;85.07;98750.94;4077260;29;20239;-61
2023/07/10 00:39:37;;;;;;;4.22;3.88;;;;;;;23.69;85.04;98757.69;4072426;29;20220;-61
2023/07/10 00:41:40;;;;;;;4.18;3.78;;;;;;;23.66;85.25;98749.94;4069941;29;20230;-60
2023/07/10 00:43:47;;;;;;;4.38;4.07;;;;;;;23.73;85.49;98751.09;4070984;29;20291;-61
2023/07/10 00:45:50;;;;;;;4.43;3.47;;;;;;;23.70;85.21;98759.31;4070125;29;20242;-61
2023/07/10 00:48:09;;;;;;;4.53;4.13;;;;;;;23.67;85.36;98769.19;4068896;29;20212;-61
2023/07/10 00:50:19;;;;;;;3.75;3.45;;;;;;;23.77;85.63;98770.84;4071972;29;20250;-61
2023/07/10 00:52:31;;;;;;;3.83;3.28;;;;;;;23.67;85.45;98778.38;4077453;29;20329;-61
2023/07/10 00:54:35;;;;;;;4.20;3.53;;;;;;;23.65;85.71;98776.25;4072615;29;20235;-61
2023/07/10 00:56:39;;;;;;;4.07;3.67;;;;;;;23.62;85.56;98788.06;4073544;29;20248;-61
2023/07/10 00:58:46;;;;;;;5.03;4.20;;;;;;;23.61;86.38;98792.03;4075346;29;20211;-61
2023/07/10 01:01:02;;;;;;;5.82;4.47;;;;;;;23.63;86.66;98795.34;4069648;29;20266;-61
2023/07/10 01:03:12;;;;;;;4.68;4.25;;;;;;;23.55;86.61;98793.31;4067104;29;20612;-61
2023/07/10 01:05:15;;;;;;;4.10;3.70;;;;;;;23.49;87.42;98803.84;4066354;29;20207;-61
2023/07/10 01:07:17;;;;;;;5.28;3.88;;;;;;;23.42;87.36;98811.06;4072301;29;20242;-61
2023/07/10 01:09:19;;;;;;;3.97;3.67;;;;;;;23.33;87.88;98818.63;4071505;29;20262;-61
2023/07/10 01:11:20;;;;;;;4.80;4.13;;;;;;;23.35;88.58;98822.72;4070793;29;20342;-61
2023/07/10 01:13:22;;;;;;;4.03;3.50;;;;;;;23.41;88.42;98826.19;4067176;29;20356;-61
2023/07/10 01:15:23;;;;;;;5.68;4.25;;;;;;;22.96;90.95;98821.94;4070506;29;20208;-61
2023/07/10 01:17:25;;;;;;;4.35;3.40;;;;;;;22.51;94.11;98815.63;4068654;29;20216;-61
2023/07/10 01:19:27;;;;;;;4.53;3.92;;;;;;;22.62;93.43;98814.22;4069538;29;20251;-61
2023/07/10 01:21:31;;;;;;;5.15;4.65;;;;;;;22.82;92.33;98818.41;4071052;29;20607;-61
2023/07/10 01:23:33;;;;;;;4.50;4.10;;;;;;;22.80;92.07;98831.88;4071197;29;20319;-60
2023/07/10 01:25:43;;;;;;;4.65;4.15;;;;;;;22.95;90.99;98823.06;4070521;29;20208;-61
2023/07/10 01:27:45;;;;;;;4.68;4.25;;;;;;;23.00;90.03;98826.56;4069402;29;20208;-62
2023/07/10 01:30:02;;;;;;;4.63;4.22;;;;;;;23.13;89.98;98824.78;4071450;29;21021;-61
2023/07/10 01:32:05;;;;;;;4.53;4.00;;;;;;;23.23;89.70;98824.53;4071012;29;20267;-61
2023/07/10 01:34:07;;;;;;;4.35;3.97;;;;;;;23.15;89.85;98822.47;4073409;29;20235;-61
2023/07/10 01:36:10;;;;;;;6.32;4.53;;;;;;;23.14;89.76;98816.09;4056763;29;20712;-61
2023/07/10 01:38:13;;;;;;;5.03;4.63;;;;;;;23.16;89.23;98818.59;4077133;29;20736;-61
2023/07/10 01:40:19;;;;;;;5.55;3.60;;;;;;;23.14;89.33;98821.66;4067584;29;20248;-61
2023/07/10 01:42:21;;;;;;;6.10;5.13;;;;;;;23.13;89.50;98819.19;4075361;29;20231;-60
2023/07/10 01:44:34;;;;;;;4.72;4.30;;;;;;;23.10;88.97;98836.59;4074810;29;21123;-60
2023/07/10 01:46:36;;;;;;;4.65;4.25;;;;;;;23.14;89.69;98837.59;4073342;29;20294;-61
2023/07/10 01:48:37;;;;;;;4.88;4.43;;;;;;;23.22;89.60;98839.59;4067606;29;20217;-61
2023/07/10 01:50:39;;;;;;;5.18;4.35;;;;;;;23.24;89.90;98824.19;4069913;29;20242;-60
2023/07/10 01:52:41;;;;;;;3.92;3.55;;;;;;;23.11;89.32;98827.06;4070278;29;20207;-60
2023/07/10 01:54:43;;;;;;;4.90;4.13;;;;;;;23.10;89.80;98819.84;4069708;29;20295;-61
2023/07/10 01:56:45;;;;;;;6.97;4.70;;;;;;;23.05;89.51;98820.00;4071309;29;20817;-61
2023/07/10 01:58:47;;;;;;;4.97;4.57;;;;;;;22.96;89.67;98805.19;4071035;29;20664;-61
2023/07/10 02:00:48;;;;;;;5.32;4.88;;;;;;;22.95;89.26;98811.91;4071887;29;20239;-60
2023/07/10 02:02:50;;;;;;;5.13;4.50;;;;;;;22.96;89.43;98830.31;4070556;29;20211;-61
2023/07/10 02:04:52;;;;;;;8.30;4.75;;;;;;;23.06;89.76;98824.44;4070043;29;20694;-61
2023/07/10 02:06:57;;;;;;;4.72;4.22;;;;;;;23.03;90.28;98817.50;4070552;29;20572;-61
2023/07/10 02:08:58;;;;;;;6.25;5.63;;;;;;;22.94;90.90;98827.00;4068126;29;20307;-60
2023/07/10 02:11:01;;;;;;;3.60;3.30;;;;;;;23.05;90.60;98817.19;4070685;29;21866;-60
2023/07/10 02:13:02;;;;;;;6.50;4.90;;;;;;;22.68;93.00;98814.91;4069437;29;20235;-61
2023/07/10 02:15:04;;;;;;;6.82;4.97;;;;;;;22.67;92.90;98825.25;4068329;29;20258;-60
2023/07/10 02:17:06;;;;;;;4.88;4.55;;;;;;;22.32;94.97;98820.56;4069711;29;21085;-61
2023/07/10 02:19:08;;;;;;;5.25;4.85;;;;;;;22.29;95.17;98825.97;4071809;29;20616;-61
2023/07/10 02:21:09;;;;;;;6.93;3.85;;;;;;;22.36;94.61;98831.91;4077430;29;20230;-61
2023/07/10 02:23:11;;;;;;;5.65;4.60;;;;;;;22.40;93.18;98832.94;4072023;29;20204;-60
2023/07/10 02:25:13;;;;;;;4.68;4.22;;;;;;;22.48;92.62;98835.81;4074961;29;20291;-61
2023/07/10 02:27:14;;;;;;;4.65;4.32;;;;;;;22.52;92.44;98838.78;4073365;29;20239;-61
2023/07/10 02:29:16;;;;;;;4.43;4.13;;;;;;;22.59;92.35;98844.75;4072304;29;20822;-61
2023/07/10 02:31:18;;;;;;;4.15;3.85;;;;;;;22.59;92.56;98842.78;4072465;29;20298;-61
2023/07/10 02:33:19;;;;;;;5.88;5.38;;;;;;;22.58;91.82;98843.09;4069924;29;20228;-61
2023/07/10 02:35:21;;;;;;;4.72;4.25;;;;;;;22.56;91.81;98859.34;4072908;29;20250;-61
2023/07/10 02:37:23;;;;;;;4.97;4.28;;;;;;;22.56;91.85;98859.34;4073590;29;20203;-61
2023/07/10 02:39:24;;;;;;;5.03;3.83;;;;;;;22.61;92.20;98861.97;4073488;29;20243;-60
2023/07/10 02:41:26;;;;;;;4.80;4.43;;;;;;;22.56;92.32;98848.19;4070313;29;20247;-61
2023/07/10 02:43:27;;;;;;;5.75;4.45;;;;;;;22.57;92.28;98853.41;4072840;29;20208;-61
2023/07/10 02:45:29;;;;;;;5.20;4.68;;;;;;;22.56;91.97;98854.56;4072910;29;20215;-61
2023/07/10 02:47:31;;;;;;;5.78;4.75;;;;;;;22.59;92.22;98842.78;4072896;29;20257;-60
2023/07/10 02:49:32;;;;;;;5.50;4.10;;;;;;;22.60;92.57;98840.81;4072029;29;20219;-61
2023/07/10 02:51:34;;;;;;;5.55;4.40;;;;;;;22.52;92.51;98844.38;4071299;29;20251;-60
2023/07/10 02:53:35;;;;;;;4.70;4.20;;;;;;;22.51;92.33;98845.53;4072888;29;20638;-61
2023/07/10 02:55:37;;;;;;;4.53;4.20;;;;;;;22.55;92.37;98843.72;4073346;29;20751;-60
2023/07/10 02:57:39;;;;;;;5.85;5.28;;;;;;;22.52;92.38;98852.75;4073018;29;21045;-61
2023/07/10 02:59:41;;;;;;;5.45;4.97;;;;;;;22.61;92.55;98851.66;4072240;29;20680;-59
2023/07/10 03:01:42;;;;;;;5.13;4.68;;;;;;;22.48;92.96;98852.56;4074152;29;20259;-61
2023/07/10 03:03:45;;;;;;;5.03;4.63;;;;;;;22.40;93.86;98852.47;4072064;29;20200;-60
2023/07/10 03:05:53;;;;;;;5.88;5.13;;;;;;;22.16;95.45;98852.78;4073560;29;20294;-60
2023/07/10 03:07:54;;;;;;;5.40;4.65;;;;;;;21.88;97.28;98847.63;4061619;29;20211;-60
2023/07/10 03:09:56;;;;;;;5.22;4.82;;;;;;;21.62;98.58;98849.34;4074380;29;20208;-60
2023/07/10 03:11:58;;;;;;;7.18;4.90;;;;;;;21.30;100.00;98844.75;4071861;29;20595;-60
2023/07/10 03:14:01;;;;;;;5.57;5.18;;;;;;;21.47;100.00;98852.47;4073208;29;20252;-60
2023/07/10 03:16:07;;;;;;;5.90;5.30;;;;;;;21.57;99.15;98852.25;4074298;29;20218;-60
2023/07/10 03:18:09;;;;;;;5.50;4.72;;;;;;;21.72;98.66;98860.28;4070716;29;20694;-61
2023/07/10 03:20:11;;;;;;;5.20;4.70;;;;;;;21.76;97.98;98862.13;4071960;29;20219;-60
2023/07/10 03:22:13;;;;;;;5.00;4.43;;;;;;;21.91;96.87;98858.19;4072764;29;20696;-61
2023/07/10 03:24:14;;;;;;;5.43;4.80;;;;;;;21.90;96.61;98846.19;4071032;29;20212;-60
2023/07/10 03:26:16;;;;;;;5.20;4.85;;;;;;;21.93;96.07;98850.31;4069728;29;20228;-61
2023/07/10 03:28:18;;;;;;;4.60;4.20;;;;;;;21.94;95.57;98858.38;4071937;29;20305;-60
2023/07/10 03:30:20;;;;;;;9.68;5.70;;;;;;;21.80;96.74;98863.16;4073190;29;20208;-61
2023/07/10 03:32:21;;;;;;;5.50;5.03;;;;;;;21.96;96.18;98861.66;4070905;29;20228;-61
2023/07/10 03:34:23;;;;;;;5.30;4.20;;;;;;;22.00;95.81;98857.09;4073961;29;20675;-61
2023/07/10 03:36:24;;;;;;;6.72;4.57;;;;;;;21.99;95.58;98863.00;4074031;29;21078;-60
2023/07/10 03:38:26;;;;;;;6.03;5.43;;;;;;;21.73;97.45;98864.72;4071605;29;20602;-61
2023/07/10 03:40:28;;;;;;;6.10;5.65;;;;;;;21.67;97.73;98863.19;4072213;29;20250;-60
2023/07/10 03:42:29;;;;;;;6.82;4.97;;;;;;;21.68;98.26;98870.41;4072006;29;20318;-60
2023/07/10 03:44:31;;;;;;;7.88;4.47;;;;;;;21.78;97.39;98870.19;4069098;29;20290;-61
2023/07/10 03:46:32;;;;;;;5.85;5.10;;;;;;;21.75;96.97;98881.94;4071458;29;20270;-60
2023/07/10 03:48:34;;;;;;;10.18;4.40;;;;;;;21.76;96.50;98875.22;4069456;29;20208;-61
2023/07/10 03:50:36;;;;;;;4.40;3.83;;;;;;;21.85;96.68;98887.31;4067900;29;20211;-60
2023/07/10 03:52:37;;;;;;;5.35;4.85;;;;;;;21.77;96.74;98890.84;4068073;29;20208;-60
2023/07/10 03:54:39;;;;;;;6.82;4.60;;;;;;;21.78;96.63;98886.91;4069147;29;20347;-61
2023/07/10 03:56:40;;;;;;;7.35;4.68;;;;;;;21.62;98.33;98893.91;4071620;29;20302;-61
2023/07/10 03:58:44;;;;;;;5.07;4.57;;;;;;;21.42;99.69;98891.56;4071153;29;20212;-60
2023/07/10 04:00:45;;;;;;;7.20;4.80;;;;;;;21.10;100.00;98897.28;4071864;29;20205;-61
2023/07/10 04:02:47;;;;;;;5.47;4.93;;;;;;;20.84;100.00;98898.88;4073213;29;20647;-60
2023/07/10 04:04:49;;;;;;;5.70;5.25;;;;;;;20.74;100.00;98904.59;4071106;29;20201;-61
2023/07/10 04:06:50;;;;;;;5.60;5.20;;;;;;;20.77;100.00;98906.78;4071848;29;20640;-60
2023/07/10 04:08:53;;;;;;;5.38;4.88;;;;;;;21.03;100.00;98903.22;4069761;29;20207;-61
2023/07/10 04:10:56;;;;;;;5.13;4.68;;;;;;;21.15;100.00;98906.34;4070369;29;20225;-60
2023/07/10 04:12:58;;;;;;;9.73;6.05;;;;;;;21.13;100.00;98900.25;4073308;29;20219;-60
2023/07/10 04:15:00;;;;;;;5.53;4.90;;;;;;;21.27;100.00;98900.25;4072761;29;20697;-60
2023/07/10 04:17:01;;;;;;;7.57;5.47;;;;;;;21.35;100.00;98902.28;4071596;29;20203;-60
2023/07/10 04:19:03;;;;;;;5.18;4.75;;;;;;;21.46;100.00;98895.38;4070912;29;20212;-60
2023/07/10 04:21:16;;;;;;;7.45;5.45;;;;;;;21.56;100.00;98911.88;4071075;29;20227;-61
2023/07/10 04:23:18;;;;;;;5.47;4.65;;;;;;;21.73;99.64;98928.81;4072149;29;20637;-60
2023/07/10 04:25:20;;;;;;;7.55;5.60;;;;;;;21.87;99.52;98929.59;4071365;29;20634;-60
2023/07/10 04:27:21;;;;;;;4.75;4.35;;;;;;;21.85;99.37;98937.47;4071720;29;22161;-61
2023/07/10 04:29:24;;;;;;;6.05;5.53;;;;;;;21.84;99.39;98941.41;4072006;29;20628;-61
2023/07/10 04:31:25;;;;;;;5.82;5.32;;;;;;;21.86;98.80;98944.69;4073333;29;20318;-61
2023/07/10 04:33:27;;;;;;;6.07;5.43;;;;;;;21.92;98.64;98944.25;4072427;29;20234;-60
2023/07/10 04:35:29;;;;;;;6.03;5.50;;;;;;;21.81;100.00;98954.00;4073988;29;20255;-60
2023/07/10 04:37:30;;;;;;;6.15;5.32;;;;;;;21.73;100.00;98949.16;4071264;29;20307;-61
2023/07/10 04:39:32;;;;;;;7.03;4.50;;;;;;;21.76;99.81;98967.19;4076305;29;20258;-61
2023/07/10 04:41:34;;;;;;;5.85;5.38;;;;;;;21.86;99.40;98966.97;4061563;29;20232;-60
2023/07/10 04:43:35;;;;;;;6.13;4.95;;;;;;;21.91;99.45;98964.91;4070655;29;20207;-60
2023/07/10 04:45:38;;;;;;;4.88;4.47;;;;;;;22.00;98.92;98962.19;4071229;29;20211;-61
2023/07/10 04:47:39;;;;;;;5.07;4.78;;;;;;;22.11;98.51;98964.44;4068843;29;20243;-60
2023/07/10 04:49:41;;;;;;;5.55;5.15;;;;;;;21.98;100.00;98961.69;4071352;29;20212;-61
2023/07/10 04:51:43;;;;;;;5.82;5.30;;;;;;;22.00;100.00;98965.00;4065734;29;20266;-61
2023/07/10 04:53:52;;;;;;;6.30;5.18;;;;;;;22.04;99.69;98974.38;4066594;29;20212;-61
2023/07/10 04:55:55;;;;;;;4.60;4.25;;;;;;;22.05;99.33;98967.66;4058032;29;20263;-61
2023/07/10 04:57:57;;;;;;;5.43;4.93;;;;;;;22.10;98.94;98973.13;4069416;29;20239;-61
2023/07/10 04:59:59;;;;;;;5.45;4.95;;;;;;;22.16;98.42;98971.84;4071095;29;20261;-61
2023/07/10 05:02:00;;;;;;;7.03;5.82;;;;;;;;;;4069852;29;20892;-61
2023/07/10 05:04:02;;;;;;;5.63;5.10;;;;;;;22.10;99.93;98967.56;4072630;29;20267;-60
2023/07/10 05:06:04;;;;;;;7.63;5.55;;;;;;;22.19;99.38;98976.81;4069615;29;20256;-60
2023/07/10 05:08:06;;;;;;;5.72;5.22;;;;;;;21.92;100.00;98966.53;4069425;29;20825;-59
2023/07/10 05:10:08;;;;;;;7.80;5.90;;;;;;;21.80;100.00;98963.50;4073400;29;20315;-61
2023/07/10 05:12:10;;;;;;;6.20;5.70;;;;;;;21.87;100.00;98968.63;4069362;29;20234;-61
2023/07/10 05:14:11;;;;;;;5.72;4.93;;;;;;;21.84;100.00;98975.66;4069294;29;20235;-61
2023/07/10 05:16:14;;;;;;;4.93;4.53;;;;;;;21.97;100.00;98976.78;4069653;29;20282;-61
2023/07/10 05:18:16;;;;;;;5.53;5.03;;;;;;;22.05;99.50;98971.25;4071957;29;20204;-61
2023/07/10 05:20:18;;;;;;;6.75;5.40;;;;;;;22.17;98.66;98967.94;4070455;29;20222;-61
2023/07/10 05:22:20;;;;;;;6.88;5.53;;;;;;;22.27;98.05;98962.13;4071575;29;20612;-61
2023/07/10 05:24:21;;;;;;;5.93;5.15;;;;;;;22.34;97.64;98968.94;4069817;29;20328;-61
2023/07/10 05:26:23;;;;;;;6.70;4.82;;;;;;;22.41;97.41;98974.06;4070024;29;20242;-60
2023/07/10 05:28:25;;;;;;;5.32;4.82;;;;;;;22.48;96.85;98980.06;4068011;29;20643;-61
2023/07/10 05:30:28;;;;;;;6.15;5.55;;;;;;;22.54;97.11;98976.00;4069731;29;20235;-60
2023/07/10 05:32:29;;;;;;;4.82;4.38;;;;;;;22.57;96.73;98978.16;4069702;29;20346;-61
2023/07/10 05:34:31;;;;;;;6.18;4.55;;;;;;;22.62;96.58;98975.22;4069058;29;20238;-60
2023/07/10 05:36:33;;;;;;;5.45;4.95;;;;;;;22.68;96.28;98979.56;4071792;29;20559;-61
2023/07/10 05:38:35;;;;;;;8.15;5.07;;;;;;;22.66;97.16;98979.06;4068620;29;20219;-61
2023/07/10 05:40:41;;;;;;;5.45;4.95;;;;;;;22.70;97.25;98977.28;4069358;29;20220;-61
2023/07/10 05:42:43;;;;;;;5.50;5.05;;;;;;;22.74;97.88;98983.88;4065621;29;20790;-61
2023/07/10 05:44:44;;;;;;;5.28;4.75;;;;;;;22.82;96.78;98980.31;4065891;29;20231;-60
2023/07/10 05:46:46;;;;;;;5.75;5.25;;;;;;;22.88;97.36;98991.03;4064656;29;20230;-61
2023/07/10 05:48:47;;;;;;;8.77;7.20;;;;;;;22.85;97.21;98985.28;4065932;29;20239;-61
2023/07/10 05:50:50;;;;;;;4.82;4.53;;;;;;;22.95;98.25;98990.56;4067128;29;20623;-61
2023/07/10 05:52:51;;;;;;;6.57;5.95;;;;;;;23.10;97.07;98993.00;4070610;28;20218;-61
2023/07/10 05:54:53;;;;;;;7.95;6.43;;;;;;;23.26;96.57;98992.28;4068998;29;20227;-61
2023/07/10 05:56:55;;;;;;;6.90;6.18;;;;;;;23.23;95.89;98994.91;4068524;29;20207;-60
2023/07/10 05:58:57;;;;;;;8.20;5.65;;;;;;;23.37;96.10;98996.44;4067641;29;20307;-61
2023/07/10 06:00:59;;;;;;;6.38;5.78;;;;;;;23.44;95.88;99005.19;4070451;29;21263;-60
2023/07/10 06:03:01;;;;;;;6.53;5.63;;;;;;;23.55;95.38;99011.31;4072591;29;20437;-61
2023/07/10 06:05:03;;;;;;;7.47;6.78;;;;;;;23.74;93.81;99010.72;4069666;29;20779;-61
2023/07/10 06:07:05;;;;;;;8.57;5.55;;;;;;;23.65;93.91;99011.03;4074506;29;20210;-61
2023/07/10 06:09:14;;;;;;;15.15;6.63;;;;;;;23.85;93.20;99017.69;4041314;29;20216;-61
2023/07/10 06:11:16;;;;;;;6.53;5.15;;;;;;;23.93;93.45;99019.72;4073429;29;20232;-60
2023/07/10 06:13:18;;;;;;;7.30;6.10;;;;;;;24.07;92.21;99014.81;4076751;29;20574;-60
2023/07/10 06:15:20;;;;;;;7.68;6.00;;;;;;;24.24;90.99;99014.84;4077008;29;20247;-60
2023/07/10 06:17:22;;;;;;;7.60;4.85;;;;;;;24.32;91.10;99014.03;4060342;29;20623;-60
2023/07/10 06:19:24;;;;;;;6.00;5.40;;;;;;;24.56;89.60;99022.00;4071332;29;20211;-60
2023/07/10 06:21:25;;;;;;;5.95;5.43;;;;;;;24.56;89.06;99022.00;4074626;29;20232;-60
2023/07/10 06:23:28;;;;;;;6.03;4.97;;;;;;;24.62;89.10;99032.72;4074229;29;20216;-60
2023/07/10 06:25:34;;;;;;;5.40;4.88;;;;;;;24.60;89.53;99023.81;4075613;29;20286;-60
2023/07/10 06:27:36;;;;;;;7.13;5.70;;;;;;;24.78;89.21;99028.25;4068301;29;20216;-61
2023/07/10 06:29:37;;;;;;;6.35;5.82;;;;;;;24.61;89.08;99025.44;4070655;29;20636;-61
2023/07/10 06:31:39;;;;;;;8.18;7.28;;;;;;;24.67;89.16;99032.53;4069127;29;20245;-61
2023/07/10 06:33:41;;;;;;;10.15;7.07;;;;;;;24.25;91.01;99024.06;4071468;29;20270;-61
2023/07/10 06:35:42;;;;;;;10.82;6.00;;;;;;;24.51;91.17;99031.34;4071930;29;20220;-61
2023/07/10 06:37:44;;;;;;;7.45;6.45;;;;;;;24.39;91.07;99033.16;4076348;29;20212;-61
2023/07/10 06:40:04;;;;;;;11.15;5.85;;;;;;;24.67;90.02;99029.72;4073094;29;20211;-61
2023/07/10 06:42:05;;;;;;;7.50;6.82;;;;;;;24.76;89.06;99038.97;4074176;29;20228;-61
2023/07/10 06:44:07;;;;;;;6.60;5.60;;;;;;;24.86;88.37;99033.03;4072374;29;20204;-61
2023/07/10 06:46:09;;;;;;;6.68;6.07;;;;;;;25.03;87.32;99027.41;4071808;29;20623;-61
2023/07/10 06:48:11;;;;;;;6.63;5.65;;;;;;;25.07;86.67;99028.38;4072266;29;20235;-61
2023/07/10 06:50:14;;;;;;;6.90;6.20;;;;;;;24.96;87.12;99032.69;4072096;29;20236;-62
2023/07/10 06:52:16;;;;;;;5.90;5.40;;;;;;;25.22;87.20;99038.25;4071714;29;20634;-61
2023/07/10 06:54:27;;;;;;;6.55;5.45;;;;;;;25.33;86.11;99036.78;4075345;29;20766;-61
2023/07/10 06:56:33;;;;;;;7.70;6.07;;;;;;;25.42;86.48;99044.03;4075551;29;20208;-59
2023/07/10 06:58:35;;;;;;;5.72;5.18;;;;;;;25.45;86.39;99037.72;4073127;29;20251;-60
2023/07/10 07:00:36;;;;;;;6.10;5.53;;;;;;;25.59;84.79;99045.94;4070798;29;20212;-60
2023/07/10 07:02:39;;;;;;;5.63;5.13;;;;;;;25.65;84.98;99045.41;4077005;29;20679;-61
2023/07/10 07:04:41;;;;;;;13.18;5.13;;;;;;;25.65;84.72;99045.41;4061336;29;20794;-60
2023/07/10 07:06:43;;;;;;;6.75;6.05;;;;;;;25.86;84.30;99043.50;4071520;29;20216;-61
2023/07/10 07:08:49;;;;;;;6.07;5.57;;;;;;;25.79;84.14;99046.03;4069794;29;20226;-60
2023/07/10 07:10:52;;;;;;;7.55;5.15;;;;;;;26.08;83.10;99037.69;4074224;29;20204;-60
2023/07/10 07:12:54;;;;;;;4.35;3.67;;;;;;;26.22;82.27;99040.22;4069787;29;20268;-61
2023/07/10 07:14:55;;;;;;;4.65;4.15;;;;;;;26.37;80.63;99034.84;4073076;29;20299;-60
2023/07/10 07:16:57;;;;;;;5.28;4.78;;;;;;;26.33;80.91;99033.88;4070411;29;20208;-60
2023/07/10 07:19:00;;;;;;;5.82;3.83;;;;;;;26.56;80.27;99038.06;4074040;29;20208;-60
2023/07/10 07:21:14;;;;;;;5.13;4.72;;;;;;;26.44;79.68;99029.50;4070610;29;20270;-60
2023/07/10 07:23:16;;;;;;;8.05;5.05;;;;;;;26.70;78.88;99030.19;4071380;29;20215;-60
2023/07/10 07:25:18;;;;;;;4.90;3.63;;;;;;;26.74;78.44;99027.50;4071502;29;20212;-60
2023/07/10 07:27:20;;;;;;;4.18;3.58;;;;;;;27.06;77.10;99029.53;4071854;29;20554;-60
2023/07/10 07:29:21;;;;;;;3.50;3.08;;;;;;;27.23;75.29;99027.41;4073050;29;20282;-60
2023/07/10 07:31:23;;;;;;;4.38;3.97;;;;;;;27.29;75.85;99034.47;4075762;29;20235;-60
2023/07/10 07:33:25;;;;;;;4.88;3.88;;;;;;;27.11;76.55;99032.94;4071602;29;20627;-60
2023/07/10 07:35:27;;;;;;;3.85;3.45;;;;;;;27.31;74.97;99032.09;4072660;29;20740;-60
2023/07/10 07:37:29;;;;;;;7.45;3.92;;;;;;;27.26;76.47;99028.69;4073821;29;20227;-60
2023/07/10 07:39:31;;;;;;;4.10;3.75;;;;;;;27.36;76.42;99023.47;4073151;29;20215;-60
2023/07/10 07:41:33;;;;;;;6.10;4.63;;;;;;;27.53;76.03;99023.25;4075621;29;20235;-60
2023/07/10 07:43:35;;;;;;;4.05;3.75;;;;;;;27.21;75.11;99021.31;4068756;29;20215;-60
2023/07/10 07:45:37;;;;;;;4.38;3.97;;;;;;;27.55;75.72;99032.19;4073000;29;20207;-60
2023/07/10 07:47:40;;;;;;;4.18;3.78;;;;;;;27.57;75.45;99032.66;4071948;29;20215;-60
2023/07/10 07:49:42;;;;;;;7.90;4.00;;;;;;;27.80;74.46;99033.06;4074907;29;20298;-60
2023/07/10 07:51:43;;;;;;;6.68;3.15;;;;;;;28.09;73.27;99030.84;4075397;29;20941;-60
2023/07/10 07:53:45;;;;;;;3.90;3.60;;;;;;;28.01;73.48;99040.25;4074214;29;20279;-60
2023/07/10 07:55:47;;;;;;;8.70;4.25;;;;;;;28.08;72.68;99040.47;4077201;29;20254;-61
2023/07/10 07:57:49;;;;;;;4.28;3.95;;;;;;;27.39;74.81;99031.19;4073915;29;20199;-60
2023/07/10 07:59:51;;;;;;;10.48;4.13;;;;;;;27.79;75.09;99032.22;4072861;29;20729;-60
2023/07/10 08:01:53;;;;;;;5.05;3.70;;;;;;;28.10;74.35;99040.94;4063280;29;20278;-60
2023/07/10 08:03:55;;;;;;;4.00;3.67;;;;;;;27.94;72.97;99031.56;4078757;29;20237;-60
2023/07/10 08:05:56;;;;;;;3.97;3.67;;;;;;;28.11;72.18;99039.75;4071791;29;20203;-60
2023/07/10 08:07:58;;;;;;;6.45;3.88;;;;;;;28.22;72.46;99038.13;4066318;29;20695;-59
2023/07/10 08:10:00;;;;;;;6.78;3.92;;;;;;;28.36;72.73;99040.59;4072206;29;21625;-59
2023/07/10 08:12:02;;;;;;;3.55;2.83;;;;;;;28.23;71.69;99041.75;4071003;29;20266;-60
2023/07/10 08:14:04;;;;;;;8.50;3.58;;;;;;;28.27;71.01;99032.28;4071169;29;20293;-59
2023/07/10 08:16:06;;;;;;;4.20;3.80;;;;;;;28.49;70.20;99034.59;4067131;29;20371;-59
2023/07/10 08:18:08;;;;;;;4.53;4.13;;;;;;;28.69;69.26;99029.97;4069230;29;20231;-60
2023/07/10 08:20:11;;;;;;;4.82;3.63;;;;;;;28.54;69.15;99042.81;4071649;29;20233;-60
2023/07/10 08:22:12;;;;;;;5.38;3.47;;;;;;;28.74;69.09;99029.75;4069796;29;20341;-60
2023/07/10 08:24:14;;;;;;;4.35;4.05;;;;;;;28.89;68.79;99035.44;4069601;29;20782;-60
2023/07/10 08:26:16;;;;;;;3.75;3.45;;;;;;;29.23;68.76;99032.06;4069980;29;20212;-60
2023/07/10 08:28:17;;;;;;;5.88;3.78;;;;;;;28.76;68.95;99036.66;4067517;29;20971;-60
2023/07/10 08:30:19;;;;;;;6.30;3.60;;;;;;;29.18;68.69;99046.41;4066041;29;20212;-60
2023/07/10 08:32:21;;;;;;;3.83;3.53;;;;;;;29.02;68.39;99042.72;4069886;29;20691;-60
2023/07/10 08:34:24;;;;;;;8.32;3.58;;;;;;;29.30;66.88;99032.25;4068426;29;20208;-60
2023/07/10 08:36:33;;;;;;;4.32;3.92;;;;;;;29.11;66.72;99046.19;4242918;27;21102;-45
2023/07/10 08:38:36;;;;;;;6.68;3.72;;;;;;;28.82;67.05;99040.03;4184964;28;20215;-47
2023/07/10 08:40:41;;;;;;;5.13;3.72;;;;;;;28.46;67.73;99040.94;4193750;28;20895;-48
2023/07/10 08:42:43;;;;;;;7.07;3.50;;;;;;;28.06;69.86;99033.56;4185708;28;20206;-48
2023/07/10 08:44:50;;;;;;;3.90;3.28;;;;;;;28.03;69.27;99043.53;4197450;28;20293;-47
2023/07/10 08:46:52;;;;;;;4.20;3.78;;;;;;;27.67;71.67;99039.81;4202283;28;21281;-47
2023/07/10 08:48:57;;;;;;;4.38;3.53;;;;;;;27.92;71.46;99042.34;4185872;28;20650;-48
2023/07/10 08:51:07;;;;;;;7.63;3.35;;;;;;;27.84;70.43;99034.81;4213945;28;20214;-49
2023/07/10 08:53:12;;;;;;;4.38;3.47;;;;;;;27.96;71.25;99043.28;4202453;28;20270;-47
2023/07/10 08:55:21;;;;;;;4.22;3.83;;;;;;;28.25;69.73;99040.22;4198575;28;20225;-47
2023/07/10 08:57:30;;;;;;;4.20;3.80;;;;;;;28.44;67.17;99037.66;4197974;28;20233;-48
2023/07/10 08:59:35;;;;;;;4.47;3.97;;;;;;;28.51;66.46;99040.69;4200405;28;20306;-48
2023/07/10 09:01:39;;;;;;;3.83;3.55;;;;;;;28.58;65.38;99034.47;4201270;28;20222;-47
2023/07/10 09:03:44;;;;;;;3.40;3.05;;;;;;;29.17;64.00;99039.13;4196241;28;21233;-49
2023/07/10 09:05:50;;;;;;;3.78;3.47;;;;;;;29.00;62.38;99039.44;4198266;28;20260;-47
2023/07/10 09:07:53;;;;;;;4.22;3.53;;;;;;;28.62;63.66;99039.03;4196309;28;20225;-48
2023/07/10 09:10:01;;;;;;;3.40;3.10;;;;;;;29.53;62.66;99032.50;4198037;28;20215;-50
2023/07/10 09:12:41;;;;;;;3.20;2.90;;;;;;;29.33;60.03;99037.16;4166396;28;20249;-46
2023/07/10 09:15:02;;;;;;;5.18;3.40;;;;;;;30.00;58.94;99034.19;4195870;28;20201;-48
2023/07/10 09:17:32;;;;;;;4.35;2.47;;;;;;;29.49;57.07;99046.50;4195771;28;20226;-47
2023/07/10 09:19:34;;;;;;;5.72;3.10;;;;;;;29.03;57.56;99044.34;4215840;28;20881;-48
2023/07/10 09:21:36;;;;;;;3.28;2.58;;;;;;;28.86;58.06;99044.59;4198912;28;20292;-47
2023/07/10 09:23:38;;;;;;;3.97;3.30;;;;;;;29.38;56.69;99050.22;4194766;28;20300;-48
2023/07/10 09:25:40;;;;;;;4.55;2.95;;;;;;;29.57;53.86;99048.34;4197180;28;20206;-46
2023/07/10 09:27:45;;;;;;;3.47;2.90;;;;;;;29.26;53.71;99044.63;4195335;28;20233;-49
2023/07/10 09:29:49;;;;;;;2.97;2.67;;;;;;;28.68;54.08;99048.06;4195310;28;20272;-47
2023/07/10 09:32:02;;;;;;;4.05;2.50;;;;;;;28.65;54.20;99043.97;4184810;28;20222;-46
2023/07/10 09:34:04;;;;;;;2.55;2.35;;;;;;;28.61;53.95;99047.84;4216344;28;20573;-47
2023/07/10 09:36:12;;;;;;;3.65;2.55;;;;;;;28.92;54.88;99054.44;4215676;28;20239;-47
2023/07/10 09:38:22;;;;;;;3.33;3.00;;;;;;;29.21;53.87;99040.06;4200876;28;20209;-47
2023/07/10 09:40:40;;;;;;;2.83;2.42;;;;;;;29.12;52.87;99052.66;4200817;28;20224;-47